Time;durP1;ratioP1;P1;durP2;ratioP2;P2;SDS_P1;SDS_P2;PMS_P1;PMS_P2;Temp;Humidity;BMP_temperature;BMP_pressure;BME280_temperature;BME280_humidity;BME280_pressure;Samples;Min_cycle;Max_cycle;Signal;HPM_P1;HPM_P2
2019/11/01 00:01:00;;;;;;;34.75;19.9;;;;;;;4.54;100;95478.88;;;;
2019/11/01 00:02:02;;;;;;;34.75;19.9;;;;;;;4.54;100;95478.88;;;;
2019/11/01 00:03:03;;;;;;;34.75;19.9;;;;;;;4.54;100;95478.88;;;;
2019/11/01 00:04:04;;;;;;;34.75;19.9;;;;;;;4.54;100;95478.88;;;;
2019/11/01 00:05:06;;;;;;;34.75;19.9;;;;;;;4.54;100;95478.88;;;;
2019/11/01 00:06:07;;;;;;;34.75;19.9;;;;;;;4.54;100;95478.88;;;;
2019/11/01 00:07:08;;;;;;;34.75;19.9;;;;;;;4.54;100;95478.88;;;;
2019/11/01 00:08:09;;;;;;;34.75;19.9;;;;;;;4.54;100;95478.88;;;;
2019/11/01 00:09:10;;;;;;;31.59999;19.85;;;;;;;4.53;100;95486.19;;;;
2019/11/01 00:10:11;;;;;;;31.59999;19.85;;;;;;;4.53;100;95486.19;;;;
2019/11/01 00:11:13;;;;;;;31.59999;19.85;;;;;;;4.53;100;95486.19;;;;
2019/11/01 00:12:14;;;;;;;31.59999;19.85;;;;;;;4.53;100;95486.19;;;;
2019/11/01 00:13:15;;;;;;;31.59999;19.85;;;;;;;4.53;100;95486.19;;;;
2019/11/01 00:14:16;;;;;;;31.59999;19.85;;;;;;;4.53;100;95486.19;;;;
2019/11/01 00:15:17;;;;;;;31.59999;19.85;;;;;;;4.53;100;95486.19;;;;
2019/11/01 00:16:19;;;;;;;31.59999;19.85;;;;;;;4.53;100;95486.19;;;;
2019/11/01 00:17:20;;;;;;;31.59999;19.85;;;;;;;4.53;100;95486.19;;;;
2019/11/01 00:18:21;;;;;;;31.59999;19.85;;;;;;;4.53;100;95486.19;;;;
2019/11/01 00:19:22;;;;;;;39;21.5;;;;;;;4.48;100;95484.08;;;;
2019/11/01 00:20:23;;;;;;;39;21.5;;;;;;;4.48;100;95484.08;;;;
2019/11/01 00:21:24;;;;;;;39;21.5;;;;;;;4.48;100;95484.08;;;;
2019/11/01 00:22:25;;;;;;;39;21.5;;;;;;;4.48;100;95484.08;;;;
2019/11/01 00:23:27;;;;;;;39;21.5;;;;;;;4.48;100;95484.08;;;;
2019/11/01 00:25:30;;;;;;;39;21.5;;;;;;;4.48;100;95484.08;;;;
2019/11/01 00:26:31;;;;;;;39;21.5;;;;;;;4.48;100;95484.08;;;;
2019/11/01 00:27:32;;;;;;;39;21.5;;;;;;;4.48;100;95484.08;;;;
2019/11/01 00:28:34;;;;;;;39;21.5;;;;;;;4.48;100;95484.08;;;;
2019/11/01 00:29:35;;;;;;;39;21.5;;;;;;;4.48;100;95484.08;;;;
2019/11/01 00:31:20;;;;;;;40.3;23;;;;;;;4.5;100;95476.28;;;;
2019/11/01 00:32:21;;;;;;;40.3;23;;;;;;;4.5;100;95476.28;;;;
2019/11/01 00:33:22;;;;;;;40.3;23;;;;;;;4.5;100;95476.28;;;;
2019/11/01 00:34:26;;;;;;;40.3;23;;;;;;;4.5;100;95476.28;;;;
2019/11/01 00:35:27;;;;;;;40.3;23;;;;;;;4.5;100;95476.28;;;;
2019/11/01 00:36:28;;;;;;;40.3;23;;;;;;;4.5;100;95476.28;;;;
2019/11/01 00:37:29;;;;;;;40.3;23;;;;;;;4.5;100;95476.28;;;;
2019/11/01 00:38:30;;;;;;;40.3;23;;;;;;;4.5;100;95476.28;;;;
2019/11/01 00:39:31;;;;;;;40.3;23;;;;;;;4.5;100;95476.28;;;;
2019/11/01 00:40:32;;;;;;;45.1;24.2;;;;;;;4.45;100;95464.42;;;;
2019/11/01 00:41:33;;;;;;;45.1;24.2;;;;;;;4.45;100;95464.42;;;;
2019/11/01 00:42:35;;;;;;;45.1;24.2;;;;;;;4.45;100;95464.42;;;;
2019/11/01 00:43:36;;;;;;;45.1;24.2;;;;;;;4.45;100;95464.42;;;;
2019/11/01 00:44:37;;;;;;;45.1;24.2;;;;;;;4.45;100;95464.42;;;;
2019/11/01 00:45:38;;;;;;;45.1;24.2;;;;;;;4.45;100;95464.42;;;;
2019/11/01 00:46:40;;;;;;;45.1;24.2;;;;;;;4.45;100;95464.42;;;;
2019/11/01 00:47:41;;;;;;;45.1;24.2;;;;;;;4.45;100;95464.42;;;;
2019/11/01 00:48:42;;;;;;;45.1;24.2;;;;;;;4.45;100;95464.42;;;;
2019/11/01 00:49:44;;;;;;;45.1;24.2;;;;;;;4.45;100;95464.42;;;;
2019/11/01 00:50:45;;;;;;;45.1;24.2;;;;;;;4.45;100;95464.42;;;;
2019/11/01 00:51:46;;;;;;;41.8;22.4;;;;;;;4.41;100;95467.69;;;;
2019/11/01 00:52:47;;;;;;;41.8;22.4;;;;;;;4.41;100;95467.69;;;;
2019/11/01 00:53:48;;;;;;;41.8;22.4;;;;;;;4.41;100;95467.69;;;;
2019/11/01 00:54:49;;;;;;;41.8;22.4;;;;;;;4.41;100;95467.69;;;;
2019/11/01 00:55:50;;;;;;;41.8;22.4;;;;;;;4.41;100;95467.69;;;;
2019/11/01 00:56:52;;;;;;;41.8;22.4;;;;;;;4.41;100;95467.69;;;;
2019/11/01 00:57:53;;;;;;;41.8;22.4;;;;;;;4.41;100;95467.69;;;;
2019/11/01 00:58:54;;;;;;;41.8;22.4;;;;;;;4.41;100;95467.69;;;;
2019/11/01 00:59:55;;;;;;;41.8;22.4;;;;;;;4.41;100;95467.69;;;;
2019/11/01 01:00:56;;;;;;;41.8;22.4;;;;;;;4.41;100;95467.69;;;;
2019/11/01 01:02:01;;;;;;;43.05;22.95;;;;;;;4.26;100;95444.53;;;;
2019/11/01 01:03:02;;;;;;;43.05;22.95;;;;;;;4.26;100;95444.53;;;;
2019/11/01 01:04:03;;;;;;;43.05;22.95;;;;;;;4.26;100;95444.53;;;;
2019/11/01 01:05:05;;;;;;;43.05;22.95;;;;;;;4.26;100;95444.53;;;;
2019/11/01 01:06:06;;;;;;;43.05;22.95;;;;;;;4.26;100;95444.53;;;;
2019/11/01 01:07:08;;;;;;;43.05;22.95;;;;;;;4.26;100;95444.53;;;;
2019/11/01 01:08:09;;;;;;;43.05;22.95;;;;;;;4.26;100;95444.53;;;;
2019/11/01 01:09:10;;;;;;;43.05;22.95;;;;;;;4.26;100;95444.53;;;;
2019/11/01 01:10:11;;;;;;;43.05;22.95;;;;;;;4.26;100;95444.53;;;;
2019/11/01 01:11:15;;;;;;;43.05;22.95;;;;;;;4.26;100;95444.53;;;;
2019/11/01 01:12:18;;;;;;;41.45;23.1;;;;;;;4.25;100;95448.32;;;;
2019/11/01 01:13:20;;;;;;;41.45;23.1;;;;;;;4.25;100;95448.32;;;;
2019/11/01 01:14:21;;;;;;;41.45;23.1;;;;;;;4.25;100;95448.32;;;;
2019/11/01 01:15:22;;;;;;;41.45;23.1;;;;;;;4.25;100;95448.32;;;;
2019/11/01 01:16:23;;;;;;;41.45;23.1;;;;;;;4.25;100;95448.32;;;;
2019/11/01 01:17:24;;;;;;;41.45;23.1;;;;;;;4.25;100;95448.32;;;;
2019/11/01 01:18:26;;;;;;;41.45;23.1;;;;;;;4.25;100;95448.32;;;;
2019/11/01 01:19:27;;;;;;;41.45;23.1;;;;;;;4.25;100;95448.32;;;;
2019/11/01 01:20:28;;;;;;;41.45;23.1;;;;;;;4.25;100;95448.32;;;;
2019/11/01 01:21:29;;;;;;;41.45;23.1;;;;;;;4.25;100;95448.32;;;;
2019/11/01 01:22:30;;;;;;;41.45;23.1;;;;;;;4.25;100;95448.32;;;;
2019/11/01 01:23:37;;;;;;;42.8;22.99999;;;;;;;4.25;100;95446.98;;;;
2019/11/01 01:25:45;;;;;;;42.8;22.99999;;;;;;;4.25;100;95446.98;;;;
2019/11/01 01:26:52;;;;;;;42.8;22.99999;;;;;;;4.25;100;95446.98;;;;
2019/11/01 01:27:53;;;;;;;42.8;22.99999;;;;;;;4.25;100;95446.98;;;;
2019/11/01 01:28:55;;;;;;;42.8;22.99999;;;;;;;4.25;100;95446.98;;;;
2019/11/01 01:29:56;;;;;;;42.8;22.99999;;;;;;;4.25;100;95446.98;;;;
2019/11/01 01:30:57;;;;;;;42.8;22.99999;;;;;;;4.25;100;95446.98;;;;
2019/11/01 01:31:58;;;;;;;42.8;22.99999;;;;;;;4.25;100;95446.98;;;;
2019/11/01 01:32:59;;;;;;;42.8;22.99999;;;;;;;4.25;100;95446.98;;;;
2019/11/01 01:34:00;;;;;;;40.1;23.1;;;;;;;4.29;100;95440.23;;;;
2019/11/01 01:35:02;;;;;;;40.1;23.1;;;;;;;4.29;100;95440.23;;;;
2019/11/01 01:36:03;;;;;;;40.1;23.1;;;;;;;4.29;100;95440.23;;;;
2019/11/01 01:37:04;;;;;;;40.1;23.1;;;;;;;4.29;100;95440.23;;;;
2019/11/01 01:38:40;;;;;;;40.1;23.1;;;;;;;4.29;100;95440.23;;;;
2019/11/01 01:39:49;;;;;;;40.1;23.1;;;;;;;4.29;100;95440.23;;;;
2019/11/01 01:40:50;;;;;;;40.1;23.1;;;;;;;4.29;100;95440.23;;;;
2019/11/01 01:41:51;;;;;;;40.1;23.1;;;;;;;4.29;100;95440.23;;;;
2019/11/01 01:42:52;;;;;;;40.1;23.1;;;;;;;4.29;100;95440.23;;;;
2019/11/01 01:43:54;;;;;;;40.1;23.1;;;;;;;4.29;100;95440.23;;;;
2019/11/01 01:44:55;;;;;;;40.1;23.1;;;;;;;4.29;100;95440.23;;;;
2019/11/01 01:46:14;;;;;;;40.1;23.1;;;;;;;4.29;100;95440.23;;;;
2019/11/01 01:47:16;;;;;;;40.1;23.1;;;;;;;4.29;100;95440.23;;;;
2019/11/01 01:48:17;;;;;;;40.1;23.1;;;;;;;4.29;100;95440.23;;;;
2019/11/01 01:49:18;;;;;;;40.1;23.1;;;;;;;4.29;100;95440.23;;;;
2019/11/01 01:50:19;;;;;;;40.1;23.1;;;;;;;4.29;100;95440.23;;;;
2019/11/01 01:51:24;;;;;;;40.1;23.1;;;;;;;4.29;100;95440.23;;;;
2019/11/01 01:52:27;;;;;;;40.1;23.1;;;;;;;4.29;100;95440.23;;;;
2019/11/01 01:53:28;;;;;;;40.1;23.1;;;;;;;4.29;100;95440.23;;;;
2019/11/01 01:54:29;;;;;;;40.1;23.1;;;;;;;4.29;100;95440.23;;;;
2019/11/01 01:55:30;;;;;;;37.35;22.1;;;;;;;4.36;100;95413.05;;;;
2019/11/01 01:56:31;;;;;;;37.35;22.1;;;;;;;4.36;100;95413.05;;;;
2019/11/01 01:57:32;;;;;;;37.35;22.1;;;;;;;4.36;100;95413.05;;;;
2019/11/01 01:58:34;;;;;;;37.35;22.1;;;;;;;4.36;100;95413.05;;;;
2019/11/01 01:59:35;;;;;;;37.35;22.1;;;;;;;4.36;100;95413.05;;;;
2019/11/01 02:00:36;;;;;;;37.35;22.1;;;;;;;4.36;100;95413.05;;;;
2019/11/01 02:01:37;;;;;;;37.35;22.1;;;;;;;4.36;100;95413.05;;;;
2019/11/01 02:02:39;;;;;;;37.35;22.1;;;;;;;4.36;100;95413.05;;;;
2019/11/01 02:03:40;;;;;;;37.35;22.1;;;;;;;4.36;100;95413.05;;;;
2019/11/01 02:04:41;;;;;;;37.35;22.1;;;;;;;4.36;100;95413.05;;;;
2019/11/01 02:05:42;;;;;;;40.6;23.4;;;;;;;4.27;100;95400.34;;;;
2019/11/01 02:06:43;;;;;;;40.6;23.4;;;;;;;4.27;100;95400.34;;;;
2019/11/01 02:07:45;;;;;;;40.6;23.4;;;;;;;4.27;100;95400.34;;;;
2019/11/01 02:08:46;;;;;;;40.6;23.4;;;;;;;4.27;100;95400.34;;;;
2019/11/01 02:09:47;;;;;;;40.6;23.4;;;;;;;4.27;100;95400.34;;;;
2019/11/01 02:10:48;;;;;;;40.6;23.4;;;;;;;4.27;100;95400.34;;;;
2019/11/01 02:11:50;;;;;;;40.6;23.4;;;;;;;4.27;100;95400.34;;;;
2019/11/01 02:12:51;;;;;;;40.6;23.4;;;;;;;4.27;100;95400.34;;;;
2019/11/01 02:13:52;;;;;;;40.6;23.4;;;;;;;4.27;100;95400.34;;;;
2019/11/01 02:14:53;;;;;;;40.6;23.4;;;;;;;4.27;100;95400.34;;;;
2019/11/01 02:15:54;;;;;;;40.6;23.4;;;;;;;4.27;100;95400.34;;;;
2019/11/01 02:16:56;;;;;;;36.35001;21.95;;;;;;;4.29;100;95380.52;;;;
2019/11/01 02:17:57;;;;;;;36.35001;21.95;;;;;;;4.29;100;95380.52;;;;
2019/11/01 02:18:58;;;;;;;36.35001;21.95;;;;;;;4.29;100;95380.52;;;;
2019/11/01 02:19:59;;;;;;;36.35001;21.95;;;;;;;4.29;100;95380.52;;;;
2019/11/01 02:21:01;;;;;;;36.35001;21.95;;;;;;;4.29;100;95380.52;;;;
2019/11/01 02:22:02;;;;;;;36.35001;21.95;;;;;;;4.29;100;95380.52;;;;
2019/11/01 02:23:46;;;;;;;36.35001;21.95;;;;;;;4.29;100;95380.52;;;;
2019/11/01 02:24:48;;;;;;;36.35001;21.95;;;;;;;4.29;100;95380.52;;;;
2019/11/01 02:25:52;;;;;;;36.35001;21.95;;;;;;;4.29;100;95380.52;;;;
2019/11/01 02:26:53;;;;;;;36.25;20.7;;;;;;;4.24;100;95371.85;;;;
2019/11/01 02:27:54;;;;;;;36.25;20.7;;;;;;;4.24;100;95371.85;;;;
2019/11/01 02:29:01;;;;;;;36.25;20.7;;;;;;;4.24;100;95371.85;;;;
2019/11/01 02:30:55;;;;;;;36.25;20.7;;;;;;;4.24;100;95371.85;;;;
2019/11/01 02:32:10;;;;;;;36.25;20.7;;;;;;;4.24;100;95371.85;;;;
2019/11/01 02:33:12;;;;;;;36.25;20.7;;;;;;;4.24;100;95371.85;;;;
2019/11/01 02:34:14;;;;;;;36.25;20.7;;;;;;;4.24;100;95371.85;;;;
2019/11/01 02:35:16;;;;;;;36.25;20.7;;;;;;;4.24;100;95371.85;;;;
2019/11/01 02:36:17;;;;;;;36.25;20.7;;;;;;;4.24;100;95371.85;;;;
2019/11/01 02:37:18;;;;;;;36.25;20.7;;;;;;;4.24;100;95371.85;;;;
2019/11/01 02:38:19;;;;;;;35.55;21;;;;;;;4.21;100;95365.95;;;;
2019/11/01 02:39:20;;;;;;;35.55;21;;;;;;;4.21;100;95365.95;;;;
2019/11/01 02:40:22;;;;;;;35.55;21;;;;;;;4.21;100;95365.95;;;;
2019/11/01 02:41:23;;;;;;;35.55;21;;;;;;;4.21;100;95365.95;;;;
2019/11/01 02:42:24;;;;;;;35.55;21;;;;;;;4.21;100;95365.95;;;;
2019/11/01 02:43:26;;;;;;;35.55;21;;;;;;;4.21;100;95365.95;;;;
2019/11/01 02:44:27;;;;;;;35.55;21;;;;;;;4.21;100;95365.95;;;;
2019/11/01 02:45:29;;;;;;;35.55;21;;;;;;;4.21;100;95365.95;;;;
2019/11/01 02:46:32;;;;;;;35.55;21;;;;;;;4.21;100;95365.95;;;;
2019/11/01 02:47:33;;;;;;;35.55;21;;;;;;;4.21;100;95365.95;;;;
2019/11/01 02:48:35;;;;;;;38.95;22;;;;;;;4.14;100;95366.85;;;;
2019/11/01 02:49:36;;;;;;;38.95;22;;;;;;;4.14;100;95366.85;;;;
2019/11/01 02:50:37;;;;;;;38.95;22;;;;;;;4.14;100;95366.85;;;;
2019/11/01 02:51:38;;;;;;;38.95;22;;;;;;;4.14;100;95366.85;;;;
2019/11/01 02:52:39;;;;;;;38.95;22;;;;;;;4.14;100;95366.85;;;;
2019/11/01 02:53:41;;;;;;;38.95;22;;;;;;;4.14;100;95366.85;;;;
2019/11/01 02:54:42;;;;;;;38.95;22;;;;;;;4.14;100;95366.85;;;;
2019/11/01 02:55:43;;;;;;;38.95;22;;;;;;;4.14;100;95366.85;;;;
2019/11/01 02:56:45;;;;;;;38.95;22;;;;;;;4.14;100;95366.85;;;;
2019/11/01 02:57:46;;;;;;;38.95;22;;;;;;;4.14;100;95366.85;;;;
2019/11/01 02:58:47;;;;;;;36.5;22.05;;;;;;;4.18;100;95348.49;;;;
2019/11/01 02:59:48;;;;;;;36.5;22.05;;;;;;;4.18;100;95348.49;;;;
2019/11/01 03:00:50;;;;;;;36.5;22.05;;;;;;;4.18;100;95348.49;;;;
2019/11/01 03:01:51;;;;;;;36.5;22.05;;;;;;;4.18;100;95348.49;;;;
2019/11/01 03:02:52;;;;;;;36.5;22.05;;;;;;;4.18;100;95348.49;;;;
2019/11/01 03:03:53;;;;;;;36.5;22.05;;;;;;;4.18;100;95348.49;;;;
2019/11/01 03:04:55;;;;;;;36.5;22.05;;;;;;;4.18;100;95348.49;;;;
2019/11/01 03:05:56;;;;;;;36.5;22.05;;;;;;;4.18;100;95348.49;;;;
2019/11/01 03:06:57;;;;;;;36.5;22.05;;;;;;;4.18;100;95348.49;;;;
2019/11/01 03:07:59;;;;;;;36.5;22.05;;;;;;;4.18;100;95348.49;;;;
2019/11/01 03:09:00;;;;;;;36.5;22.05;;;;;;;4.18;100;95348.49;;;;
2019/11/01 03:10:01;;;;;;;34.30001;19.75;;;;;;;4.17;100;95346.44;;;;
2019/11/01 03:11:03;;;;;;;34.30001;19.75;;;;;;;4.17;100;95346.44;;;;
2019/11/01 03:12:04;;;;;;;34.30001;19.75;;;;;;;4.17;100;95346.44;;;;
2019/11/01 03:13:05;;;;;;;34.30001;19.75;;;;;;;4.17;100;95346.44;;;;
2019/11/01 03:14:06;;;;;;;34.30001;19.75;;;;;;;4.17;100;95346.44;;;;
2019/11/01 03:15:08;;;;;;;34.30001;19.75;;;;;;;4.17;100;95346.44;;;;
2019/11/01 03:16:09;;;;;;;34.30001;19.75;;;;;;;4.17;100;95346.44;;;;
2019/11/01 03:17:10;;;;;;;34.30001;19.75;;;;;;;4.17;100;95346.44;;;;
2019/11/01 03:18:11;;;;;;;34.30001;19.75;;;;;;;4.17;100;95346.44;;;;
2019/11/01 03:19:13;;;;;;;34.30001;19.75;;;;;;;4.17;100;95346.44;;;;
2019/11/01 03:20:14;;;;;;;34.20001;20.15;;;;;;;4.17;100;95343.77;;;;
2019/11/01 03:21:15;;;;;;;34.20001;20.15;;;;;;;4.17;100;95343.77;;;;
2019/11/01 03:22:17;;;;;;;34.20001;20.15;;;;;;;4.17;100;95343.77;;;;
2019/11/01 03:23:18;;;;;;;34.20001;20.15;;;;;;;4.17;100;95343.77;;;;
2019/11/01 03:24:19;;;;;;;34.20001;20.15;;;;;;;4.17;100;95343.77;;;;
2019/11/01 03:25:20;;;;;;;34.20001;20.15;;;;;;;4.17;100;95343.77;;;;
2019/11/01 03:26:21;;;;;;;34.20001;20.15;;;;;;;4.17;100;95343.77;;;;
2019/11/01 03:27:23;;;;;;;34.20001;20.15;;;;;;;4.17;100;95343.77;;;;
2019/11/01 03:28:24;;;;;;;34.20001;20.15;;;;;;;4.17;100;95343.77;;;;
2019/11/01 03:29:25;;;;;;;34.20001;20.15;;;;;;;4.17;100;95343.77;;;;
2019/11/01 03:30:26;;;;;;;35.60001;21.3;;;;;;;4.14;100;95336.61;;;;
2019/11/01 03:31:27;;;;;;;35.60001;21.3;;;;;;;4.14;100;95336.61;;;;
2019/11/01 03:32:29;;;;;;;35.60001;21.3;;;;;;;4.14;100;95336.61;;;;
2019/11/01 03:33:30;;;;;;;35.60001;21.3;;;;;;;4.14;100;95336.61;;;;
2019/11/01 03:34:31;;;;;;;35.60001;21.3;;;;;;;4.14;100;95336.61;;;;
2019/11/01 03:35:32;;;;;;;35.60001;21.3;;;;;;;4.14;100;95336.61;;;;
2019/11/01 03:36:33;;;;;;;35.60001;21.3;;;;;;;4.14;100;95336.61;;;;
2019/11/01 03:37:35;;;;;;;35.60001;21.3;;;;;;;4.14;100;95336.61;;;;
2019/11/01 03:38:36;;;;;;;35.60001;21.3;;;;;;;4.14;100;95336.61;;;;
2019/11/01 03:39:37;;;;;;;35.60001;21.3;;;;;;;4.14;100;95336.61;;;;
2019/11/01 03:40:38;;;;;;;35.60001;21.3;;;;;;;4.14;100;95336.61;;;;
2019/11/01 03:41:39;;;;;;;36.4;20.5;;;;;;;4.18;100;95327.11;;;;
2019/11/01 03:42:41;;;;;;;36.4;20.5;;;;;;;4.18;100;95327.11;;;;
2019/11/01 03:43:42;;;;;;;36.4;20.5;;;;;;;4.18;100;95327.11;;;;
2019/11/01 03:44:45;;;;;;;36.4;20.5;;;;;;;4.18;100;95327.11;;;;
2019/11/01 03:45:49;;;;;;;36.4;20.5;;;;;;;4.18;100;95327.11;;;;
2019/11/01 03:46:50;;;;;;;36.4;20.5;;;;;;;4.18;100;95327.11;;;;
2019/11/01 03:47:55;;;;;;;36.4;20.5;;;;;;;4.18;100;95327.11;;;;
2019/11/01 03:49:00;;;;;;;36.4;20.5;;;;;;;4.18;100;95327.11;;;;
2019/11/01 03:50:10;;;;;;;36.4;20.5;;;;;;;4.18;100;95327.11;;;;
2019/11/01 03:51:17;;;;;;;36.4;20.5;;;;;;;4.18;100;95327.11;;;;
2019/11/01 03:52:23;;;;;;;37.6;20.95;;;;;;;4.16;100;95320.72;;;;
2019/11/01 03:53:31;;;;;;;37.6;20.95;;;;;;;4.16;100;95320.72;;;;
2019/11/01 03:54:33;;;;;;;37.6;20.95;;;;;;;4.16;100;95320.72;;;;
2019/11/01 03:55:37;;;;;;;37.6;20.95;;;;;;;4.16;100;95320.72;;;;
2019/11/01 03:56:39;;;;;;;37.6;20.95;;;;;;;4.16;100;95320.72;;;;
2019/11/01 03:57:40;;;;;;;37.6;20.95;;;;;;;4.16;100;95320.72;;;;
2019/11/01 03:58:41;;;;;;;37.6;20.95;;;;;;;4.16;100;95320.72;;;;
2019/11/01 03:59:42;;;;;;;37.6;20.95;;;;;;;4.16;100;95320.72;;;;
2019/11/01 04:00:43;;;;;;;37.6;20.95;;;;;;;4.16;100;95320.72;;;;
2019/11/01 04:01:45;;;;;;;37.6;20.95;;;;;;;4.16;100;95320.72;;;;
2019/11/01 04:02:46;;;;;;;36.75;20.9;;;;;;;4.23;100;95310.47;;;;
2019/11/01 04:03:47;;;;;;;36.75;20.9;;;;;;;4.23;100;95310.47;;;;
2019/11/01 04:04:57;;;;;;;36.75;20.9;;;;;;;4.23;100;95310.47;;;;
2019/11/01 04:07:06;;;;;;;36.75;20.9;;;;;;;4.23;100;95310.47;;;;
2019/11/01 04:08:09;;;;;;;36.75;20.9;;;;;;;4.23;100;95310.47;;;;
2019/11/01 04:09:10;;;;;;;36.75;20.9;;;;;;;4.23;100;95310.47;;;;
2019/11/01 04:10:11;;;;;;;36.75;20.9;;;;;;;4.23;100;95310.47;;;;
2019/11/01 04:11:13;;;;;;;36.75;20.9;;;;;;;4.23;100;95310.47;;;;
2019/11/01 04:12:14;;;;;;;36.75;20.9;;;;;;;4.23;100;95310.47;;;;
2019/11/01 04:13:16;;;;;;;40.85;21.45;;;;;;;4.21;100;95303.58;;;;
2019/11/01 04:14:17;;;;;;;40.85;21.45;;;;;;;4.21;100;95303.58;;;;
2019/11/01 04:15:18;;;;;;;40.85;21.45;;;;;;;4.21;100;95303.58;;;;
2019/11/01 04:16:19;;;;;;;40.85;21.45;;;;;;;4.21;100;95303.58;;;;
2019/11/01 04:17:20;;;;;;;40.85;21.45;;;;;;;4.21;100;95303.58;;;;
2019/11/01 04:18:22;;;;;;;40.85;21.45;;;;;;;4.21;100;95303.58;;;;
2019/11/01 04:19:23;;;;;;;40.85;21.45;;;;;;;4.21;100;95303.58;;;;
2019/11/01 04:20:24;;;;;;;40.85;21.45;;;;;;;4.21;100;95303.58;;;;
2019/11/01 04:21:25;;;;;;;40.85;21.45;;;;;;;4.21;100;95303.58;;;;
2019/11/01 04:22:27;;;;;;;40.85;21.45;;;;;;;4.21;100;95303.58;;;;
2019/11/01 04:23:28;;;;;;;40.85;21.45;;;;;;;4.21;100;95303.58;;;;
2019/11/01 04:24:29;;;;;;;35.9;20.6;;;;;;;4.27;100;95293.95;;;;
2019/11/01 04:25:30;;;;;;;35.9;20.6;;;;;;;4.27;100;95293.95;;;;
2019/11/01 04:26:32;;;;;;;35.9;20.6;;;;;;;4.27;100;95293.95;;;;
2019/11/01 04:27:33;;;;;;;35.9;20.6;;;;;;;4.27;100;95293.95;;;;
2019/11/01 04:28:34;;;;;;;35.9;20.6;;;;;;;4.27;100;95293.95;;;;
2019/11/01 04:29:35;;;;;;;35.9;20.6;;;;;;;4.27;100;95293.95;;;;
2019/11/01 04:30:36;;;;;;;35.9;20.6;;;;;;;4.27;100;95293.95;;;;
2019/11/01 04:31:39;;;;;;;35.9;20.6;;;;;;;4.27;100;95293.95;;;;
2019/11/01 04:32:40;;;;;;;35.9;20.6;;;;;;;4.27;100;95293.95;;;;
2019/11/01 04:33:41;;;;;;;35.9;20.6;;;;;;;4.27;100;95293.95;;;;
2019/11/01 04:34:43;;;;;;;34.55;19.95;;;;;;;4.25;100;95301.25;;;;
2019/11/01 04:35:45;;;;;;;34.55;19.95;;;;;;;4.25;100;95301.25;;;;
2019/11/01 04:36:47;;;;;;;34.55;19.95;;;;;;;4.25;100;95301.25;;;;
2019/11/01 04:37:48;;;;;;;34.55;19.95;;;;;;;4.25;100;95301.25;;;;
2019/11/01 04:38:52;;;;;;;34.55;19.95;;;;;;;4.25;100;95301.25;;;;
2019/11/01 04:39:54;;;;;;;34.55;19.95;;;;;;;4.25;100;95301.25;;;;
2019/11/01 04:40:56;;;;;;;34.55;19.95;;;;;;;4.25;100;95301.25;;;;
2019/11/01 04:42:05;;;;;;;34.55;19.95;;;;;;;4.25;100;95301.25;;;;
2019/11/01 04:43:53;;;;;;;34.55;19.95;;;;;;;4.25;100;95301.25;;;;
2019/11/01 04:45:11;;;;;;;37.10001;20.05;;;;;;;4.3;100;95282.89;;;;
2019/11/01 04:46:33;;;;;;;37.10001;20.05;;;;;;;4.3;100;95282.89;;;;
2019/11/01 04:47:46;;;;;;;37.10001;20.05;;;;;;;4.3;100;95282.89;;;;
2019/11/01 04:53:27;;;;;;;37.10001;20.05;;;;;;;4.3;100;95282.89;;;;
2019/11/01 04:55:09;;;;;;;37.10001;20.05;;;;;;;4.3;100;95282.89;;;;
2019/11/01 04:56:12;;;;;;;36.10001;19.6;;;;;;;4.28;100;95266.11;;;;
2019/11/01 04:57:19;;;;;;;36.10001;19.6;;;;;;;4.28;100;95266.11;;;;
2019/11/01 04:58:21;;;;;;;36.10001;19.6;;;;;;;4.28;100;95266.11;;;;
2019/11/01 04:59:23;;;;;;;36.10001;19.6;;;;;;;4.28;100;95266.11;;;;
2019/11/01 05:00:24;;;;;;;36.10001;19.6;;;;;;;4.28;100;95266.11;;;;
2019/11/01 05:01:27;;;;;;;36.10001;19.6;;;;;;;4.28;100;95266.11;;;;
2019/11/01 05:02:28;;;;;;;36.10001;19.6;;;;;;;4.28;100;95266.11;;;;
2019/11/01 05:03:30;;;;;;;36.10001;19.6;;;;;;;4.28;100;95266.11;;;;
2019/11/01 05:04:31;;;;;;;36.10001;19.6;;;;;;;4.28;100;95266.11;;;;
2019/11/01 05:05:33;;;;;;;36.10001;19.6;;;;;;;4.28;100;95266.11;;;;
2019/11/01 05:06:51;;;;;;;41.85;19.85;;;;;;;4.28;100;95254.08;;;;
2019/11/01 05:07:52;;;;;;;41.85;19.85;;;;;;;4.28;100;95254.08;;;;
2019/11/01 05:08:53;;;;;;;41.85;19.85;;;;;;;4.28;100;95254.08;;;;
2019/11/01 05:09:54;;;;;;;41.85;19.85;;;;;;;4.28;100;95254.08;;;;
2019/11/01 05:10:56;;;;;;;41.85;19.85;;;;;;;4.28;100;95254.08;;;;
2019/11/01 05:11:57;;;;;;;41.85;19.85;;;;;;;4.28;100;95254.08;;;;
2019/11/01 05:12:58;;;;;;;41.85;19.85;;;;;;;4.28;100;95254.08;;;;
2019/11/01 05:13:59;;;;;;;41.85;19.85;;;;;;;4.28;100;95254.08;;;;
2019/11/01 05:15:00;;;;;;;41.85;19.85;;;;;;;4.28;100;95254.08;;;;
2019/11/01 05:16:02;;;;;;;41.85;19.85;;;;;;;4.28;100;95254.08;;;;
2019/11/01 05:17:03;;;;;;;36.85001;20.35;;;;;;;4.23;100;95245.42;;;;
2019/11/01 05:18:04;;;;;;;36.85001;20.35;;;;;;;4.23;100;95245.42;;;;
2019/11/01 05:19:06;;;;;;;36.85001;20.35;;;;;;;4.23;100;95245.42;;;;
2019/11/01 05:20:07;;;;;;;36.85001;20.35;;;;;;;4.23;100;95245.42;;;;
2019/11/01 05:21:08;;;;;;;36.85001;20.35;;;;;;;4.23;100;95245.42;;;;
2019/11/01 05:22:09;;;;;;;36.85001;20.35;;;;;;;4.23;100;95245.42;;;;
2019/11/01 05:23:10;;;;;;;36.85001;20.35;;;;;;;4.23;100;95245.42;;;;
2019/11/01 05:24:12;;;;;;;36.85001;20.35;;;;;;;4.23;100;95245.42;;;;
2019/11/01 05:25:13;;;;;;;36.85001;20.35;;;;;;;4.23;100;95245.42;;;;
2019/11/01 05:26:14;;;;;;;36.85001;20.35;;;;;;;4.23;100;95245.42;;;;
2019/11/01 05:27:15;;;;;;;35.25;19.9;;;;;;;4.3;100;95232.5;;;;
2019/11/01 05:28:17;;;;;;;35.25;19.9;;;;;;;4.3;100;95232.5;;;;
2019/11/01 05:29:18;;;;;;;35.25;19.9;;;;;;;4.3;100;95232.5;;;;
2019/11/01 05:30:19;;;;;;;35.25;19.9;;;;;;;4.3;100;95232.5;;;;
2019/11/01 05:31:20;;;;;;;35.25;19.9;;;;;;;4.3;100;95232.5;;;;
2019/11/01 05:32:22;;;;;;;35.25;19.9;;;;;;;4.3;100;95232.5;;;;
2019/11/01 05:33:23;;;;;;;35.25;19.9;;;;;;;4.3;100;95232.5;;;;
2019/11/01 05:34:24;;;;;;;35.25;19.9;;;;;;;4.3;100;95232.5;;;;
2019/11/01 05:35:26;;;;;;;35.25;19.9;;;;;;;4.3;100;95232.5;;;;
2019/11/01 05:36:27;;;;;;;35.25;19.9;;;;;;;4.3;100;95232.5;;;;
2019/11/01 05:37:28;;;;;;;35.25;19.9;;;;;;;4.3;100;95232.5;;;;
2019/11/01 05:38:30;;;;;;;40;20.5;;;;;;;4.3;100;95219.67;;;;
2019/11/01 05:39:37;;;;;;;40;20.5;;;;;;;4.3;100;95219.67;;;;
2019/11/01 05:40:38;;;;;;;40;20.5;;;;;;;4.3;100;95219.67;;;;
2019/11/01 05:41:40;;;;;;;40;20.5;;;;;;;4.3;100;95219.67;;;;
2019/11/01 05:42:41;;;;;;;40;20.5;;;;;;;4.3;100;95219.67;;;;
2019/11/01 05:43:42;;;;;;;40;20.5;;;;;;;4.3;100;95219.67;;;;
2019/11/01 05:44:43;;;;;;;40;20.5;;;;;;;4.3;100;95219.67;;;;
2019/11/01 05:45:45;;;;;;;40;20.5;;;;;;;4.3;100;95219.67;;;;
2019/11/01 05:46:46;;;;;;;40;20.5;;;;;;;4.3;100;95219.67;;;;
2019/11/01 05:47:47;;;;;;;40;20.5;;;;;;;4.3;100;95219.67;;;;
2019/11/01 05:48:48;;;;;;;37.79999;20.95;;;;;;;4.35;100;95212.3;;;;
2019/11/01 05:49:49;;;;;;;37.79999;20.95;;;;;;;4.35;100;95212.3;;;;
2019/11/01 05:50:50;;;;;;;37.79999;20.95;;;;;;;4.35;100;95212.3;;;;
2019/11/01 05:51:52;;;;;;;37.79999;20.95;;;;;;;4.35;100;95212.3;;;;
2019/11/01 05:52:53;;;;;;;37.79999;20.95;;;;;;;4.35;100;95212.3;;;;
2019/11/01 05:54:37;;;;;;;37.79999;20.95;;;;;;;4.35;100;95212.3;;;;
2019/11/01 05:55:39;;;;;;;37.79999;20.95;;;;;;;4.35;100;95212.3;;;;
2019/11/01 05:56:41;;;;;;;37.79999;20.95;;;;;;;4.35;100;95212.3;;;;
2019/11/01 05:57:42;;;;;;;37.79999;20.95;;;;;;;4.35;100;95212.3;;;;
2019/11/01 05:58:43;;;;;;;37.79999;20.95;;;;;;;4.35;100;95212.3;;;;
2019/11/01 05:59:46;;;;;;;47.15001;21.75;;;;;;;4.36;100;95196.06;;;;
2019/11/01 06:00:47;;;;;;;47.15001;21.75;;;;;;;4.36;100;95196.06;;;;
2019/11/01 06:01:48;;;;;;;47.15001;21.75;;;;;;;4.36;100;95196.06;;;;
2019/11/01 06:02:50;;;;;;;47.15001;21.75;;;;;;;4.36;100;95196.06;;;;
2019/11/01 06:03:51;;;;;;;47.15001;21.75;;;;;;;4.36;100;95196.06;;;;
2019/11/01 06:04:52;;;;;;;47.15001;21.75;;;;;;;4.36;100;95196.06;;;;
2019/11/01 06:05:53;;;;;;;47.15001;21.75;;;;;;;4.36;100;95196.06;;;;
2019/11/01 06:06:55;;;;;;;47.15001;21.75;;;;;;;4.36;100;95196.06;;;;
2019/11/01 06:07:58;;;;;;;47.15001;21.75;;;;;;;4.36;100;95196.06;;;;
2019/11/01 06:08:59;;;;;;;47.15001;21.75;;;;;;;4.36;100;95196.06;;;;
2019/11/01 06:10:03;;;;;;;36.95;19.45;;;;;;;4.44;100;95189.29;;;;
2019/11/01 06:11:05;;;;;;;36.95;19.45;;;;;;;4.44;100;95189.29;;;;
2019/11/01 06:12:06;;;;;;;36.95;19.45;;;;;;;4.44;100;95189.29;;;;
2019/11/01 06:13:07;;;;;;;36.95;19.45;;;;;;;4.44;100;95189.29;;;;
2019/11/01 06:14:08;;;;;;;36.95;19.45;;;;;;;4.44;100;95189.29;;;;
2019/11/01 06:15:09;;;;;;;36.95;19.45;;;;;;;4.44;100;95189.29;;;;
2019/11/01 06:16:11;;;;;;;36.95;19.45;;;;;;;4.44;100;95189.29;;;;
2019/11/01 06:17:12;;;;;;;36.95;19.45;;;;;;;4.44;100;95189.29;;;;
2019/11/01 06:18:13;;;;;;;36.95;19.45;;;;;;;4.44;100;95189.29;;;;
2019/11/01 06:19:14;;;;;;;36.95;19.45;;;;;;;4.44;100;95189.29;;;;
2019/11/01 06:20:15;;;;;;;34.55;18.65;;;;;;;4.49;100;95179.66;;;;
2019/11/01 06:21:16;;;;;;;34.55;18.65;;;;;;;4.49;100;95179.66;;;;
2019/11/01 06:22:18;;;;;;;34.55;18.65;;;;;;;4.49;100;95179.66;;;;
2019/11/01 06:23:19;;;;;;;34.55;18.65;;;;;;;4.49;100;95179.66;;;;
2019/11/01 06:24:20;;;;;;;34.55;18.65;;;;;;;4.49;100;95179.66;;;;
2019/11/01 06:25:22;;;;;;;34.55;18.65;;;;;;;4.49;100;95179.66;;;;
2019/11/01 06:26:23;;;;;;;34.55;18.65;;;;;;;4.49;100;95179.66;;;;
2019/11/01 06:27:24;;;;;;;34.55;18.65;;;;;;;4.49;100;95179.66;;;;